Cave Spring, Georgia
Current Conditions -  °F | °C
As of 4:53 PM on Monday 20 Oct 2014 (Local Time) from KRMG Reporting Station
Clear Clear  
Wind Chill: 71°   Ceiling: Unl
Heat Index: 71°   Visibility: 10mi
Dew Point: 51°   Wind: 7mph
Humidity: 49%   Direction: 260°W
Pressure: 30"   Gusts: NA
Location:  34.11°N, 85.34°W
Report Text: KRMG 202053Z AUTO 26006KT 10SM CLR 22/11 A3000 RMK AO2 SLP152 T02170106 56015
Loading
Personal Weather Stations






























Interactive Weather Map
Tropical Storm Tracking
New forecast layout! Learn more

10-Day Weather Forecast

Advertisements
Track Severe Weather on mobile